sensor_id;sensor_type;location;lat;lon;timestamp;P1;durP1;ratioP1;P2;durP2;ratioP2
67063;SDS011;58476;48.072;11.970;2024-01-10T00:02:07;14.00;;;8.45;;
67063;SDS011;58476;48.072;11.970;2024-01-10T00:04:33;16.02;;;8.40;;
67063;SDS011;58476;48.072;11.970;2024-01-10T00:06:58;12.93;;;8.30;;
67063;SDS011;58476;48.072;11.970;2024-01-10T00:09:23;15.52;;;8.43;;
67063;SDS011;58476;48.072;11.970;2024-01-10T00:11:49;14.32;;;8.60;;
67063;SDS011;58476;48.072;11.970;2024-01-10T00:14:14;13.05;;;7.80;;
67063;SDS011;58476;48.072;11.970;2024-01-10T00:16:39;14.82;;;8.88;;
67063;SDS011;58476;48.072;11.970;2024-01-10T00:19:04;15.93;;;8.65;;
67063;SDS011;58476;48.072;11.970;2024-01-10T00:21:30;14.63;;;8.50;;
67063;SDS011;58476;48.072;11.970;2024-01-10T00:23:55;14.75;;;9.05;;
67063;SDS011;58476;48.072;11.970;2024-01-10T00:26:20;13.82;;;8.18;;
67063;SDS011;58476;48.072;11.970;2024-01-10T00:28:46;14.43;;;9.07;;
67063;SDS011;58476;48.072;11.970;2024-01-10T00:31:12;12.95;;;8.60;;
67063;SDS011;58476;48.072;11.970;2024-01-10T00:33:38;14.40;;;8.73;;
67063;SDS011;58476;48.072;11.970;2024-01-10T00:36:04;15.80;;;8.95;;
67063;SDS011;58476;48.072;11.970;2024-01-10T00:38:29;15.60;;;8.60;;
67063;SDS011;58476;48.072;11.970;2024-01-10T00:40:54;16.02;;;8.77;;
67063;SDS011;58476;48.072;11.970;2024-01-10T00:43:20;14.13;;;8.70;;
67063;SDS011;58476;48.072;11.970;2024-01-10T00:45:45;14.65;;;8.82;;
67063;SDS011;58476;48.072;11.970;2024-01-10T00:48:10;14.95;;;9.00;;
67063;SDS011;58476;48.072;11.970;2024-01-10T00:50:36;15.98;;;9.45;;
67063;SDS011;58476;48.072;11.970;2024-01-10T00:53:01;15.77;;;9.38;;
67063;SDS011;58476;48.072;11.970;2024-01-10T00:55:26;14.63;;;8.85;;
67063;SDS011;58476;48.072;11.970;2024-01-10T00:57:51;14.13;;;9.25;;
67063;SDS011;58476;48.072;11.970;2024-01-10T01:00:17;15.23;;;9.38;;
67063;SDS011;58476;48.072;11.970;2024-01-10T01:02:42;14.45;;;8.98;;
67063;SDS011;58476;48.072;11.970;2024-01-10T01:05:07;15.20;;;9.25;;
67063;SDS011;58476;48.072;11.970;2024-01-10T01:07:33;14.50;;;8.57;;
67063;SDS011;58476;48.072;11.970;2024-01-10T01:09:58;14.50;;;8.55;;
67063;SDS011;58476;48.072;11.970;2024-01-10T01:12:24;14.68;;;8.98;;
67063;SDS011;58476;48.072;11.970;2024-01-10T01:14:49;15.10;;;9.43;;
67063;SDS011;58476;48.072;11.970;2024-01-10T01:17:15;14.13;;;8.63;;
67063;SDS011;58476;48.072;11.970;2024-01-10T01:19:40;15.45;;;8.85;;
67063;SDS011;58476;48.072;11.970;2024-01-10T01:22:05;14.90;;;8.85;;
67063;SDS011;58476;48.072;11.970;2024-01-10T01:24:31;15.38;;;8.98;;
67063;SDS011;58476;48.072;11.970;2024-01-10T01:26:56;15.32;;;9.48;;
67063;SDS011;58476;48.072;11.970;2024-01-10T01:29:21;16.25;;;9.18;;
67063;SDS011;58476;48.072;11.970;2024-01-10T01:31:47;15.68;;;9.13;;
67063;SDS011;58476;48.072;11.970;2024-01-10T01:34:12;16.00;;;9.20;;
67063;SDS011;58476;48.072;11.970;2024-01-10T01:36:38;14.05;;;8.38;;
67063;SDS011;58476;48.072;11.970;2024-01-10T01:39:03;17.77;;;9.82;;
67063;SDS011;58476;48.072;11.970;2024-01-10T01:41:28;15.23;;;9.73;;
67063;SDS011;58476;48.072;11.970;2024-01-10T01:43:54;14.70;;;9.40;;
67063;SDS011;58476;48.072;11.970;2024-01-10T01:46:19;14.88;;;8.93;;
67063;SDS011;58476;48.072;11.970;2024-01-10T01:48:44;17.10;;;9.38;;
67063;SDS011;58476;48.072;11.970;2024-01-10T01:51:10;14.30;;;8.93;;
67063;SDS011;58476;48.072;11.970;2024-01-10T01:53:36;16.52;;;8.88;;
67063;SDS011;58476;48.072;11.970;2024-01-10T01:56:08;16.48;;;9.73;;
67063;SDS011;58476;48.072;11.970;2024-01-10T01:58:35;17.83;;;9.75;;
67063;SDS011;58476;48.072;11.970;2024-01-10T02:01:04;16.13;;;9.18;;
67063;SDS011;58476;48.072;11.970;2024-01-10T02:03:33;16.75;;;9.30;;
67063;SDS011;58476;48.072;11.970;2024-01-10T02:05:59;16.33;;;9.75;;
67063;SDS011;58476;48.072;11.970;2024-01-10T02:08:25;15.80;;;9.48;;
67063;SDS011;58476;48.072;11.970;2024-01-10T02:10:50;15.63;;;9.45;;
67063;SDS011;58476;48.072;11.970;2024-01-10T02:13:16;17.27;;;9.98;;
67063;SDS011;58476;48.072;11.970;2024-01-10T02:15:42;14.38;;;8.85;;
67063;SDS011;58476;48.072;11.970;2024-01-10T02:18:07;14.68;;;8.73;;
67063;SDS011;58476;48.072;11.970;2024-01-10T02:20:32;16.38;;;9.45;;
67063;SDS011;58476;48.072;11.970;2024-01-10T02:22:58;16.15;;;9.23;;
67063;SDS011;58476;48.072;11.970;2024-01-10T02:25:23;16.98;;;8.98;;
67063;SDS011;58476;48.072;11.970;2024-01-10T02:27:48;15.93;;;9.30;;
67063;SDS011;58476;48.072;11.970;2024-01-10T02:30:14;14.88;;;8.88;;
67063;SDS011;58476;48.072;11.970;2024-01-10T02:32:39;16.75;;;9.60;;
67063;SDS011;58476;48.072;11.970;2024-01-10T02:35:05;16.45;;;9.40;;
67063;SDS011;58476;48.072;11.970;2024-01-10T02:37:31;15.95;;;9.73;;
67063;SDS011;58476;48.072;11.970;2024-01-10T02:39:57;16.42;;;8.45;;
67063;SDS011;58476;48.072;11.970;2024-01-10T02:42:22;14.90;;;8.95;;
67063;SDS011;58476;48.072;11.970;2024-01-10T02:44:47;15.95;;;9.32;;
67063;SDS011;58476;48.072;11.970;2024-01-10T02:47:13;18.08;;;9.85;;
67063;SDS011;58476;48.072;11.970;2024-01-10T02:49:38;17.48;;;9.80;;
67063;SDS011;58476;48.072;11.970;2024-01-10T02:52:03;13.80;;;8.80;;
67063;SDS011;58476;48.072;11.970;2024-01-10T02:54:29;14.88;;;8.60;;
67063;SDS011;58476;48.072;11.970;2024-01-10T02:56:54;14.68;;;9.02;;
67063;SDS011;58476;48.072;11.970;2024-01-10T02:59:20;15.98;;;9.85;;
67063;SDS011;58476;48.072;11.970;2024-01-10T03:01:45;14.43;;;8.70;;
67063;SDS011;58476;48.072;11.970;2024-01-10T03:04:10;16.92;;;9.30;;
67063;SDS011;58476;48.072;11.970;2024-01-10T03:06:36;15.30;;;9.15;;
67063;SDS011;58476;48.072;11.970;2024-01-10T03:09:01;15.73;;;9.57;;
67063;SDS011;58476;48.072;11.970;2024-01-10T03:11:26;14.48;;;8.35;;
67063;SDS011;58476;48.072;11.970;2024-01-10T03:13:53;14.55;;;8.68;;
67063;SDS011;58476;48.072;11.970;2024-01-10T03:16:29;15.55;;;8.70;;
67063;SDS011;58476;48.072;11.970;2024-01-10T03:18:55;17.02;;;8.90;;
67063;SDS011;58476;48.072;11.970;2024-01-10T03:21:20;15.23;;;8.70;;
67063;SDS011;58476;48.072;11.970;2024-01-10T03:23:46;14.52;;;8.70;;
67063;SDS011;58476;48.072;11.970;2024-01-10T03:26:11;14.80;;;8.30;;
67063;SDS011;58476;48.072;11.970;2024-01-10T03:28:36;17.55;;;8.75;;
67063;SDS011;58476;48.072;11.970;2024-01-10T03:31:02;14.48;;;8.45;;
67063;SDS011;58476;48.072;11.970;2024-01-10T03:33:27;17.10;;;9.88;;
67063;SDS011;58476;48.072;11.970;2024-01-10T03:35:52;17.40;;;8.75;;
67063;SDS011;58476;48.072;11.970;2024-01-10T03:38:17;14.65;;;8.60;;
67063;SDS011;58476;48.072;11.970;2024-01-10T03:40:43;17.10;;;8.27;;
67063;SDS011;58476;48.072;11.970;2024-01-10T03:43:08;14.52;;;8.52;;
67063;SDS011;58476;48.072;11.970;2024-01-10T03:45:33;15.52;;;8.35;;
67063;SDS011;58476;48.072;11.970;2024-01-10T03:47:59;14.57;;;8.80;;
67063;SDS011;58476;48.072;11.970;2024-01-10T03:50:24;16.33;;;8.95;;
67063;SDS011;58476;48.072;11.970;2024-01-10T03:52:49;15.55;;;8.85;;
67063;SDS011;58476;48.072;11.970;2024-01-10T03:55:15;14.32;;;8.60;;
67063;SDS011;58476;48.072;11.970;2024-01-10T03:57:40;14.55;;;8.95;;
67063;SDS011;58476;48.072;11.970;2024-01-10T04:00:06;16.42;;;9.00;;
67063;SDS011;58476;48.072;11.970;2024-01-10T04:02:32;15.13;;;8.98;;
67063;SDS011;58476;48.072;11.970;2024-01-10T04:04:57;14.10;;;9.07;;
67063;SDS011;58476;48.072;11.970;2024-01-10T04:07:23;14.27;;;8.45;;
67063;SDS011;58476;48.072;11.970;2024-01-10T04:09:48;13.63;;;8.35;;
67063;SDS011;58476;48.072;11.970;2024-01-10T04:12:14;14.65;;;8.80;;
67063;SDS011;58476;48.072;11.970;2024-01-10T04:14:39;15.27;;;8.32;;
67063;SDS011;58476;48.072;11.970;2024-01-10T04:17:04;15.20;;;8.88;;
67063;SDS011;58476;48.072;11.970;2024-01-10T04:19:30;15.07;;;8.25;;
67063;SDS011;58476;48.072;11.970;2024-01-10T04:21:55;15.00;;;8.63;;
67063;SDS011;58476;48.072;11.970;2024-01-10T04:24:20;14.70;;;8.50;;
67063;SDS011;58476;48.072;11.970;2024-01-10T04:26:46;17.17;;;9.05;;
67063;SDS011;58476;48.072;11.970;2024-01-10T04:29:11;14.30;;;8.90;;
67063;SDS011;58476;48.072;11.970;2024-01-10T04:31:36;14.02;;;8.55;;
67063;SDS011;58476;48.072;11.970;2024-01-10T04:34:01;16.05;;;8.45;;
67063;SDS011;58476;48.072;11.970;2024-01-10T04:36:27;16.25;;;9.23;;
67063;SDS011;58476;48.072;11.970;2024-01-10T04:38:52;14.00;;;8.63;;
67063;SDS011;58476;48.072;11.970;2024-01-10T04:41:17;15.27;;;9.38;;
67063;SDS011;58476;48.072;11.970;2024-01-10T04:43:43;16.23;;;8.93;;
67063;SDS011;58476;48.072;11.970;2024-01-10T04:46:08;14.60;;;8.82;;
67063;SDS011;58476;48.072;11.970;2024-01-10T04:48:34;15.45;;;9.00;;
67063;SDS011;58476;48.072;11.970;2024-01-10T04:50:59;16.30;;;8.35;;
67063;SDS011;58476;48.072;11.970;2024-01-10T04:53:24;16.75;;;9.18;;
67063;SDS011;58476;48.072;11.970;2024-01-10T04:55:50;14.82;;;9.10;;
67063;SDS011;58476;48.072;11.970;2024-01-10T04:58:15;16.73;;;9.30;;
67063;SDS011;58476;48.072;11.970;2024-01-10T05:00:40;14.63;;;9.15;;
67063;SDS011;58476;48.072;11.970;2024-01-10T05:03:05;16.20;;;9.27;;
67063;SDS011;58476;48.072;11.970;2024-01-10T05:05:31;16.65;;;9.38;;
67063;SDS011;58476;48.072;11.970;2024-01-10T05:07:56;17.35;;;9.25;;
67063;SDS011;58476;48.072;11.970;2024-01-10T05:10:21;15.25;;;8.75;;
67063;SDS011;58476;48.072;11.970;2024-01-10T05:12:47;17.85;;;8.90;;
67063;SDS011;58476;48.072;11.970;2024-01-10T05:15:12;15.18;;;8.88;;
67063;SDS011;58476;48.072;11.970;2024-01-10T05:17:37;19.80;;;9.27;;
67063;SDS011;58476;48.072;11.970;2024-01-10T05:20:03;29.52;;;9.38;;
67063;SDS011;58476;48.072;11.970;2024-01-10T05:22:28;22.10;;;9.48;;
67063;SDS011;58476;48.072;11.970;2024-01-10T05:24:54;18.73;;;9.90;;
67063;SDS011;58476;48.072;11.970;2024-01-10T05:27:19;20.35;;;8.98;;
67063;SDS011;58476;48.072;11.970;2024-01-10T05:29:44;23.55;;;9.27;;
67063;SDS011;58476;48.072;11.970;2024-01-10T05:32:10;25.38;;;9.48;;
67063;SDS011;58476;48.072;11.970;2024-01-10T05:34:35;23.75;;;9.20;;
67063;SDS011;58476;48.072;11.970;2024-01-10T05:37:00;19.17;;;9.38;;
67063;SDS011;58476;48.072;11.970;2024-01-10T05:39:26;19.95;;;9.50;;
67063;SDS011;58476;48.072;11.970;2024-01-10T05:41:51;26.73;;;10.13;;
67063;SDS011;58476;48.072;11.970;2024-01-10T05:44:16;22.83;;;11.27;;
67063;SDS011;58476;48.072;11.970;2024-01-10T05:46:41;27.42;;;9.38;;
67063;SDS011;58476;48.072;11.970;2024-01-10T05:49:07;24.73;;;10.65;;
67063;SDS011;58476;48.072;11.970;2024-01-10T05:51:33;22.27;;;9.90;;
67063;SDS011;58476;48.072;11.970;2024-01-10T05:53:58;21.27;;;9.60;;
67063;SDS011;58476;48.072;11.970;2024-01-10T05:56:24;26.25;;;10.63;;
67063;SDS011;58476;48.072;11.970;2024-01-10T05:58:49;19.42;;;9.55;;
67063;SDS011;58476;48.072;11.970;2024-01-10T06:01:14;22.10;;;9.40;;
67063;SDS011;58476;48.072;11.970;2024-01-10T06:03:41;22.48;;;9.57;;
67063;SDS011;58476;48.072;11.970;2024-01-10T06:06:07;23.40;;;9.88;;
67063;SDS011;58476;48.072;11.970;2024-01-10T06:08:32;20.15;;;10.23;;
67063;SDS011;58476;48.072;11.970;2024-01-10T06:10:57;20.30;;;9.63;;
67063;SDS011;58476;48.072;11.970;2024-01-10T06:13:23;22.00;;;9.82;;
67063;SDS011;58476;48.072;11.970;2024-01-10T06:15:48;20.10;;;9.32;;
67063;SDS011;58476;48.072;11.970;2024-01-10T06:18:14;21.98;;;10.07;;
67063;SDS011;58476;48.072;11.970;2024-01-10T06:20:39;22.92;;;10.90;;
67063;SDS011;58476;48.072;11.970;2024-01-10T06:23:04;18.40;;;10.10;;
67063;SDS011;58476;48.072;11.970;2024-01-10T06:25:30;21.75;;;9.85;;
67063;SDS011;58476;48.072;11.970;2024-01-10T06:27:55;22.27;;;9.90;;
67063;SDS011;58476;48.072;11.970;2024-01-10T06:30:21;24.15;;;10.40;;
67063;SDS011;58476;48.072;11.970;2024-01-10T06:32:46;21.52;;;10.40;;
67063;SDS011;58476;48.072;11.970;2024-01-10T06:35:11;23.13;;;11.35;;
67063;SDS011;58476;48.072;11.970;2024-01-10T06:37:37;25.17;;;10.10;;
67063;SDS011;58476;48.072;11.970;2024-01-10T06:40:03;23.50;;;10.85;;
67063;SDS011;58476;48.072;11.970;2024-01-10T06:42:28;25.50;;;10.73;;
67063;SDS011;58476;48.072;11.970;2024-01-10T06:44:53;23.85;;;10.48;;
67063;SDS011;58476;48.072;11.970;2024-01-10T06:47:19;21.42;;;10.65;;
67063;SDS011;58476;48.072;11.970;2024-01-10T06:49:44;22.23;;;11.07;;
67063;SDS011;58476;48.072;11.970;2024-01-10T06:52:09;22.10;;;10.70;;
67063;SDS011;58476;48.072;11.970;2024-01-10T06:54:35;24.70;;;10.35;;
67063;SDS011;58476;48.072;11.970;2024-01-10T06:57:00;24.58;;;10.68;;
67063;SDS011;58476;48.072;11.970;2024-01-10T06:59:25;24.35;;;10.40;;
67063;SDS011;58476;48.072;11.970;2024-01-10T07:01:52;19.25;;;10.02;;
67063;SDS011;58476;48.072;11.970;2024-01-10T07:04:17;25.73;;;10.68;;
67063;SDS011;58476;48.072;11.970;2024-01-10T07:06:43;24.02;;;11.05;;
67063;SDS011;58476;48.072;11.970;2024-01-10T07:09:08;24.50;;;10.52;;
67063;SDS011;58476;48.072;11.970;2024-01-10T07:11:33;23.30;;;10.90;;
67063;SDS011;58476;48.072;11.970;2024-01-10T07:13:59;27.20;;;10.85;;
67063;SDS011;58476;48.072;11.970;2024-01-10T07:16:24;24.02;;;10.52;;
67063;SDS011;58476;48.072;11.970;2024-01-10T07:18:49;21.05;;;10.57;;
67063;SDS011;58476;48.072;11.970;2024-01-10T07:21:15;29.38;;;10.80;;
67063;SDS011;58476;48.072;11.970;2024-01-10T07:23:40;24.95;;;11.35;;
67063;SDS011;58476;48.072;11.970;2024-01-10T07:26:05;26.13;;;10.70;;
67063;SDS011;58476;48.072;11.970;2024-01-10T07:28:31;21.27;;;11.18;;
67063;SDS011;58476;48.072;11.970;2024-01-10T07:30:56;28.33;;;11.45;;
67063;SDS011;58476;48.072;11.970;2024-01-10T07:33:22;22.52;;;9.68;;
67063;SDS011;58476;48.072;11.970;2024-01-10T07:35:47;20.58;;;10.20;;
67063;SDS011;58476;48.072;11.970;2024-01-10T07:38:12;26.77;;;11.32;;
67063;SDS011;58476;48.072;11.970;2024-01-10T07:40:37;33.17;;;10.75;;
67063;SDS011;58476;48.072;11.970;2024-01-10T07:43:03;30.55;;;11.95;;
67063;SDS011;58476;48.072;11.970;2024-01-10T07:45:29;35.65;;;11.23;;
67063;SDS011;58476;48.072;11.970;2024-01-10T07:47:54;26.88;;;11.52;;
67063;SDS011;58476;48.072;11.970;2024-01-10T07:50:20;27.83;;;10.80;;
67063;SDS011;58476;48.072;11.970;2024-01-10T07:52:45;28.30;;;11.30;;
67063;SDS011;58476;48.072;11.970;2024-01-10T07:55:11;26.95;;;10.82;;
67063;SDS011;58476;48.072;11.970;2024-01-10T07:57:36;31.90;;;11.13;;
67063;SDS011;58476;48.072;11.970;2024-01-10T08:00:05;30.00;;;11.43;;
67063;SDS011;58476;48.072;11.970;2024-01-10T08:02:33;27.40;;;10.73;;
67063;SDS011;58476;48.072;11.970;2024-01-10T08:05:02;22.58;;;10.68;;
67063;SDS011;58476;48.072;11.970;2024-01-10T08:07:28;22.63;;;10.70;;
67063;SDS011;58476;48.072;11.970;2024-01-10T08:09:53;24.50;;;10.60;;
67063;SDS011;58476;48.072;11.970;2024-01-10T08:12:19;24.40;;;10.18;;
67063;SDS011;58476;48.072;11.970;2024-01-10T08:14:44;23.75;;;9.75;;
67063;SDS011;58476;48.072;11.970;2024-01-10T08:17:09;23.85;;;10.35;;
67063;SDS011;58476;48.072;11.970;2024-01-10T08:19:35;21.85;;;10.73;;
67063;SDS011;58476;48.072;11.970;2024-01-10T08:22:00;22.42;;;9.95;;
67063;SDS011;58476;48.072;11.970;2024-01-10T08:24:25;22.95;;;9.68;;
67063;SDS011;58476;48.072;11.970;2024-01-10T08:26:50;21.05;;;10.30;;
67063;SDS011;58476;48.072;11.970;2024-01-10T08:29:16;22.88;;;9.98;;
67063;SDS011;58476;48.072;11.970;2024-01-10T08:31:41;22.05;;;10.65;;
67063;SDS011;58476;48.072;11.970;2024-01-10T08:34:06;23.70;;;10.50;;
67063;SDS011;58476;48.072;11.970;2024-01-10T08:36:32;32.38;;;11.13;;
67063;SDS011;58476;48.072;11.970;2024-01-10T08:38:57;28.63;;;10.20;;
67063;SDS011;58476;48.072;11.970;2024-01-10T08:41:22;20.75;;;10.00;;
67063;SDS011;58476;48.072;11.970;2024-01-10T08:43:47;29.67;;;10.23;;
67063;SDS011;58476;48.072;11.970;2024-01-10T08:46:13;27.52;;;10.68;;
67063;SDS011;58476;48.072;11.970;2024-01-10T08:48:38;24.83;;;10.68;;
67063;SDS011;58476;48.072;11.970;2024-01-10T08:51:03;32.60;;;11.35;;
67063;SDS011;58476;48.072;11.970;2024-01-10T08:53:29;30.38;;;10.88;;
67063;SDS011;58476;48.072;11.970;2024-01-10T08:55:54;32.38;;;10.50;;
67063;SDS011;58476;48.072;11.970;2024-01-10T08:58:20;29.83;;;10.30;;
67063;SDS011;58476;48.072;11.970;2024-01-10T09:00:45;23.45;;;9.73;;
67063;SDS011;58476;48.072;11.970;2024-01-10T09:03:10;30.15;;;9.95;;
67063;SDS011;58476;48.072;11.970;2024-01-10T09:05:35;29.52;;;9.00;;
67063;SDS011;58476;48.072;11.970;2024-01-10T09:08:01;22.73;;;9.63;;
67063;SDS011;58476;48.072;11.970;2024-01-10T09:10:26;27.30;;;10.35;;
67063;SDS011;58476;48.072;11.970;2024-01-10T09:12:51;31.33;;;11.98;;
67063;SDS011;58476;48.072;11.970;2024-01-10T09:15:17;27.80;;;10.65;;
67063;SDS011;58476;48.072;11.970;2024-01-10T09:17:43;24.40;;;10.15;;
67063;SDS011;58476;48.072;11.970;2024-01-10T09:20:09;25.77;;;10.55;;
67063;SDS011;58476;48.072;11.970;2024-01-10T09:22:36;25.25;;;9.85;;
67063;SDS011;58476;48.072;11.970;2024-01-10T09:25:02;26.67;;;10.40;;
67063;SDS011;58476;48.072;11.970;2024-01-10T09:27:27;30.25;;;10.02;;
67063;SDS011;58476;48.072;11.970;2024-01-10T09:29:53;23.23;;;9.73;;
67063;SDS011;58476;48.072;11.970;2024-01-10T09:32:18;23.88;;;10.85;;
67063;SDS011;58476;48.072;11.970;2024-01-10T09:34:43;30.33;;;10.45;;
67063;SDS011;58476;48.072;11.970;2024-01-10T09:37:08;26.42;;;10.77;;
67063;SDS011;58476;48.072;11.970;2024-01-10T09:39:34;27.52;;;10.25;;
67063;SDS011;58476;48.072;11.970;2024-01-10T09:41:59;24.30;;;9.48;;
67063;SDS011;58476;48.072;11.970;2024-01-10T09:44:26;22.05;;;9.57;;
67063;SDS011;58476;48.072;11.970;2024-01-10T09:46:51;22.75;;;10.60;;
67063;SDS011;58476;48.072;11.970;2024-01-10T09:49:18;20.30;;;9.63;;
67063;SDS011;58476;48.072;11.970;2024-01-10T09:51:45;21.85;;;9.13;;
67063;SDS011;58476;48.072;11.970;2024-01-10T09:54:13;21.50;;;8.63;;
67063;SDS011;58476;48.072;11.970;2024-01-10T09:56:40;18.73;;;9.18;;
67063;SDS011;58476;48.072;11.970;2024-01-10T09:59:06;18.95;;;8.63;;
67063;SDS011;58476;48.072;11.970;2024-01-10T10:01:33;17.02;;;8.13;;
67063;SDS011;58476;48.072;11.970;2024-01-10T10:03:58;17.48;;;8.38;;
67063;SDS011;58476;48.072;11.970;2024-01-10T10:06:25;20.35;;;8.50;;
67063;SDS011;58476;48.072;11.970;2024-01-10T10:08:50;18.45;;;8.65;;
67063;SDS011;58476;48.072;11.970;2024-01-10T10:11:15;16.85;;;7.85;;
67063;SDS011;58476;48.072;11.970;2024-01-10T10:13:41;24.45;;;8.55;;
67063;SDS011;58476;48.072;11.970;2024-01-10T10:16:06;24.00;;;9.38;;
67063;SDS011;58476;48.072;11.970;2024-01-10T10:18:32;20.00;;;8.57;;
67063;SDS011;58476;48.072;11.970;2024-01-10T10:23:31;23.85;;;9.45;;
67063;SDS011;58476;48.072;11.970;2024-01-10T10:25:57;17.90;;;9.35;;
67063;SDS011;58476;48.072;11.970;2024-01-10T10:28:27;19.77;;;8.98;;
67063;SDS011;58476;48.072;11.970;2024-01-10T10:30:54;17.75;;;9.13;;
67063;SDS011;58476;48.072;11.970;2024-01-10T10:33:19;17.92;;;8.48;;
67063;SDS011;58476;48.072;11.970;2024-01-10T10:35:45;23.23;;;9.48;;
67063;SDS011;58476;48.072;11.970;2024-01-10T10:38:11;15.57;;;8.90;;
67063;SDS011;58476;48.072;11.970;2024-01-10T10:40:36;17.55;;;9.60;;
67063;SDS011;58476;48.072;11.970;2024-01-10T10:43:01;20.48;;;9.07;;
67063;SDS011;58476;48.072;11.970;2024-01-10T10:45:29;20.55;;;9.02;;
67063;SDS011;58476;48.072;11.970;2024-01-10T10:47:59;19.40;;;8.70;;
67063;SDS011;58476;48.072;11.970;2024-01-10T10:50:35;22.83;;;10.43;;
67063;SDS011;58476;48.072;11.970;2024-01-10T10:53:02;19.73;;;8.80;;
67063;SDS011;58476;48.072;11.970;2024-01-10T10:55:28;19.80;;;9.55;;
67063;SDS011;58476;48.072;11.970;2024-01-10T10:57:55;24.45;;;9.80;;
67063;SDS011;58476;48.072;11.970;2024-01-10T11:00:21;19.42;;;9.52;;
67063;SDS011;58476;48.072;11.970;2024-01-10T11:02:47;20.83;;;9.63;;
67063;SDS011;58476;48.072;11.970;2024-01-10T11:05:12;21.27;;;9.20;;
67063;SDS011;58476;48.072;11.970;2024-01-10T11:07:38;17.48;;;8.68;;
67063;SDS011;58476;48.072;11.970;2024-01-10T11:10:06;25.77;;;9.95;;
67063;SDS011;58476;48.072;11.970;2024-01-10T11:12:54;18.23;;;9.18;;
67063;SDS011;58476;48.072;11.970;2024-01-10T11:18:18;19.27;;;9.65;;
67063;SDS011;58476;48.072;11.970;2024-01-10T11:23:37;20.88;;;9.10;;
67063;SDS011;58476;48.072;11.970;2024-01-10T11:26:06;22.98;;;9.60;;
67063;SDS011;58476;48.072;11.970;2024-01-10T11:28:32;21.60;;;9.80;;
67063;SDS011;58476;48.072;11.970;2024-01-10T11:30:57;22.75;;;9.75;;
67063;SDS011;58476;48.072;11.970;2024-01-10T11:41:22;18.20;;;9.25;;
67063;SDS011;58476;48.072;11.970;2024-01-10T11:46:39;19.13;;;9.57;;
67063;SDS011;58476;48.072;11.970;2024-01-10T11:49:08;20.15;;;9.68;;
67063;SDS011;58476;48.072;11.970;2024-01-10T11:51:37;23.45;;;10.45;;
67063;SDS011;58476;48.072;11.970;2024-01-10T11:54:02;18.25;;;9.27;;
67063;SDS011;58476;48.072;11.970;2024-01-10T11:56:38;22.27;;;10.50;;
67063;SDS011;58476;48.072;11.970;2024-01-10T11:59:08;19.20;;;9.85;;
67063;SDS011;58476;48.072;11.970;2024-01-10T12:01:35;19.45;;;9.68;;
67063;SDS011;58476;48.072;11.970;2024-01-10T12:04:01;19.77;;;9.07;;
67063;SDS011;58476;48.072;11.970;2024-01-10T12:06:27;21.70;;;9.93;;
67063;SDS011;58476;48.072;11.970;2024-01-10T12:08:53;21.10;;;9.65;;
67063;SDS011;58476;48.072;11.970;2024-01-10T12:11:18;21.95;;;9.38;;
67063;SDS011;58476;48.072;11.970;2024-01-10T12:13:43;25.17;;;10.05;;
67063;SDS011;58476;48.072;11.970;2024-01-10T12:16:10;17.73;;;9.23;;
67063;SDS011;58476;48.072;11.970;2024-01-10T12:18:37;21.42;;;10.00;;
67063;SDS011;58476;48.072;11.970;2024-01-10T12:21:02;19.10;;;9.73;;
67063;SDS011;58476;48.072;11.970;2024-01-10T12:23:28;22.08;;;9.95;;
67063;SDS011;58476;48.072;11.970;2024-01-10T12:25:53;22.17;;;9.45;;
67063;SDS011;58476;48.072;11.970;2024-01-10T12:28:18;19.00;;;9.77;;
67063;SDS011;58476;48.072;11.970;2024-01-10T12:30:44;19.63;;;10.18;;
67063;SDS011;58476;48.072;11.970;2024-01-10T12:33:09;24.25;;;10.88;;
67063;SDS011;58476;48.072;11.970;2024-01-10T12:35:34;24.33;;;10.77;;
67063;SDS011;58476;48.072;11.970;2024-01-10T12:38:00;21.88;;;10.48;;
67063;SDS011;58476;48.072;11.970;2024-01-10T12:40:25;23.27;;;11.05;;
67063;SDS011;58476;48.072;11.970;2024-01-10T12:43:01;27.52;;;11.75;;
67063;SDS011;58476;48.072;11.970;2024-01-10T12:45:30;32.75;;;10.85;;
67063;SDS011;58476;48.072;11.970;2024-01-10T12:47:57;21.17;;;10.32;;
67063;SDS011;58476;48.072;11.970;2024-01-10T12:50:22;20.52;;;9.43;;
67063;SDS011;58476;48.072;11.970;2024-01-10T12:52:48;22.10;;;9.85;;
67063;SDS011;58476;48.072;11.970;2024-01-10T12:55:14;20.55;;;9.73;;
67063;SDS011;58476;48.072;11.970;2024-01-10T12:57:39;23.77;;;10.00;;
67063;SDS011;58476;48.072;11.970;2024-01-10T13:00:05;20.85;;;9.82;;
67063;SDS011;58476;48.072;11.970;2024-01-10T13:02:32;23.83;;;11.50;;
67063;SDS011;58476;48.072;11.970;2024-01-10T13:04:58;18.95;;;10.10;;
67063;SDS011;58476;48.072;11.970;2024-01-10T13:07:23;22.40;;;9.82;;
67063;SDS011;58476;48.072;11.970;2024-01-10T13:09:49;23.92;;;10.35;;
67063;SDS011;58476;48.072;11.970;2024-01-10T13:12:14;19.95;;;9.75;;
67063;SDS011;58476;48.072;11.970;2024-01-10T13:14:39;22.52;;;11.10;;
67063;SDS011;58476;48.072;11.970;2024-01-10T13:17:05;27.77;;;11.05;;
67063;SDS011;58476;48.072;11.970;2024-01-10T13:19:30;25.77;;;11.27;;
67063;SDS011;58476;48.072;11.970;2024-01-10T13:21:55;21.42;;;10.27;;
67063;SDS011;58476;48.072;11.970;2024-01-10T13:24:21;23.17;;;10.65;;
67063;SDS011;58476;48.072;11.970;2024-01-10T13:26:46;23.80;;;9.82;;
67063;SDS011;58476;48.072;11.970;2024-01-10T13:29:11;20.65;;;9.68;;
67063;SDS011;58476;48.072;11.970;2024-01-10T13:31:37;24.48;;;10.35;;
67063;SDS011;58476;48.072;11.970;2024-01-10T13:34:02;21.98;;;9.82;;
67063;SDS011;58476;48.072;11.970;2024-01-10T13:36:27;21.65;;;9.35;;
67063;SDS011;58476;48.072;11.970;2024-01-10T13:38:53;26.58;;;10.70;;
67063;SDS011;58476;48.072;11.970;2024-01-10T13:41:18;27.50;;;11.45;;
67063;SDS011;58476;48.072;11.970;2024-01-10T13:43:43;22.30;;;10.35;;
67063;SDS011;58476;48.072;11.970;2024-01-10T13:46:09;25.13;;;10.75;;
67063;SDS011;58476;48.072;11.970;2024-01-10T13:48:34;27.50;;;10.70;;
67063;SDS011;58476;48.072;11.970;2024-01-10T13:50:59;23.80;;;10.77;;
67063;SDS011;58476;48.072;11.970;2024-01-10T13:53:24;24.70;;;10.52;;
67063;SDS011;58476;48.072;11.970;2024-01-10T13:55:50;28.02;;;11.60;;
67063;SDS011;58476;48.072;11.970;2024-01-10T13:58:15;24.27;;;11.25;;
67063;SDS011;58476;48.072;11.970;2024-01-10T14:00:40;29.33;;;11.68;;
67063;SDS011;58476;48.072;11.970;2024-01-10T14:03:06;27.83;;;11.70;;
67063;SDS011;58476;48.072;11.970;2024-01-10T14:05:31;22.52;;;10.88;;
67063;SDS011;58476;48.072;11.970;2024-01-10T14:07:56;30.60;;;12.07;;
67063;SDS011;58476;48.072;11.970;2024-01-10T14:10:21;28.77;;;11.35;;
67063;SDS011;58476;48.072;11.970;2024-01-10T14:12:47;27.63;;;11.02;;
67063;SDS011;58476;48.072;11.970;2024-01-10T14:15:13;26.17;;;12.15;;
67063;SDS011;58476;48.072;11.970;2024-01-10T14:17:38;26.25;;;11.18;;
67063;SDS011;58476;48.072;11.970;2024-01-10T14:20:06;36.70;;;11.93;;
67063;SDS011;58476;48.072;11.970;2024-01-10T14:22:31;24.83;;;11.05;;
67063;SDS011;58476;48.072;11.970;2024-01-10T14:24:57;24.05;;;9.82;;
67063;SDS011;58476;48.072;11.970;2024-01-10T14:27:23;23.00;;;10.05;;